Time;durP1;ratioP1;P1;durP2;ratioP2;P2;SDS_P1;SDS_P2;PMS_P1;PMS_P2;Temp;Humidity;BMP_temperature;BMP_pressure;BME280_temperature;BME280_humidity;BME280_pressure;Samples;Min_cycle;Max_cycle;Signal;HPM_P1;HPM_P2
2023/06/16 00:02:07;;;;;;;4.72;3.40;;;;;;;;;;5052522;28;20033;-63
2023/06/16 00:04:35;;;;;;;5.32;3.60;;;;;;;;;;5052394;28;20515;-64
2023/06/16 00:07:01;;;;;;;4.68;3.40;;;;;;;;;;5052190;28;20025;-64
2023/06/16 00:09:27;;;;;;;4.38;3.70;;;;;;;;;;5051930;28;20136;-64
2023/06/16 00:11:55;;;;;;;4.10;3.70;;;;;;;;;;5052221;28;20049;-63
2023/06/16 00:14:20;;;;;;;4.15;3.17;;;;;;;;;;5052050;28;20464;-64
2023/06/16 00:16:47;;;;;;;5.25;3.35;;;;;;;;;;5052390;28;20039;-64
2023/06/16 00:19:13;;;;;;;4.07;3.50;;;;;;;;;;5052059;28;20059;-64
2023/06/16 00:21:41;;;;;;;6.82;3.80;;;;;;;;;;5052286;28;20116;-63
2023/06/16 00:24:07;;;;;;;5.03;3.47;;;;;;;;;;5052024;28;20021;-64
2023/06/16 00:26:34;;;;;;;5.03;3.90;;;;;;;;;;5052090;28;20025;-64
2023/06/16 00:29:01;;;;;;;5.28;3.38;;;;;;;;;;5052253;28;20471;-64
2023/06/16 00:31:27;;;;;;;6.15;3.45;;;;;;;;;;5051989;28;20021;-64
2023/06/16 00:33:53;;;;;;;3.63;3.33;;;;;;;;;;5051904;28;20028;-66
2023/06/16 00:36:19;;;;;;;4.95;3.50;;;;;;;;;;5052129;28;20032;-63
2023/06/16 00:38:45;;;;;;;6.45;3.40;;;;;;;;;;5051879;28;20021;-64
2023/06/16 00:41:11;;;;;;;5.43;3.70;;;;;;;;;;5052220;28;20053;-64
2023/06/16 00:43:37;;;;;;;3.50;3.20;;;;;;;;;;5053226;28;20028;-63
2023/06/16 00:46:02;;;;;;;3.40;3.10;;;;;;;;;;5056041;28;20540;-65
2023/06/16 00:48:28;;;;;;;4.60;3.90;;;;;;;;;;5055933;28;20357;-64
2023/06/16 00:50:55;;;;;;;3.38;3.08;;;;;;;;;;5055679;28;20477;-64
2023/06/16 00:53:21;;;;;;;5.82;3.67;;;;;;;;;;5055654;28;20079;-64
2023/06/16 00:55:47;;;;;;;4.10;3.70;;;;;;;;;;5055484;28;20115;-63
2023/06/16 00:58:15;;;;;;;3.53;3.20;;;;;;;;;;5055467;28;20116;-63
2023/06/16 01:00:42;;;;;;;5.32;3.45;;;;;;;;;;5055792;28;20033;-64
2023/06/16 01:03:08;;;;;;;4.18;3.10;;;;;;;;;;5055438;28;20017;-64
2023/06/16 01:05:35;;;;;;;6.13;3.85;;;;;;;;;;5055375;28;20029;-65
2023/06/16 01:08:16;;;;;;;4.07;3.60;;;;;;;;;;5055311;28;20029;-65
2023/06/16 01:11:01;;;;;;;3.75;3.08;;;;;;;;;;5055146;28;20140;-64
2023/06/16 01:13:56;;;;;;;5.07;3.72;;;;;;;;;;5055333;28;20036;-64
2023/06/16 01:16:28;;;;;;;4.07;3.35;;;;;;;;;;5055163;28;20021;-64
2023/06/16 01:18:55;;;;;;;4.82;3.20;;;;;;;;;;5055330;28;20035;-64
2023/06/16 01:21:39;;;;;;;4.75;3.25;;;;;;;;;;5055327;28;20078;-64
2023/06/16 01:24:13;;;;;;;3.42;3.00;;;;;;;;;;5053858;28;20028;-64
2023/06/16 01:26:45;;;;;;;5.30;3.58;;;;;;;;;;5055288;28;20032;-64
2023/06/16 01:29:12;;;;;;;3.58;3.13;;;;;;;;;;5055025;28;20037;-64
2023/06/16 01:31:40;;;;;;;4.32;3.30;;;;;;;;;;5054925;28;20140;-64
2023/06/16 01:34:07;;;;;;;3.83;3.13;;;;;;;;;;5054906;28;20021;-64
2023/06/16 01:36:35;;;;;;;4.20;3.30;;;;;;;;;;5055262;28;20549;-64
2023/06/16 01:39:01;;;;;;;4.32;3.60;;;;;;;;;;5054752;28;20139;-64
2023/06/16 01:41:28;;;;;;;4.28;3.40;;;;;;;;;;5055033;28;20036;-64
2023/06/16 01:43:55;;;;;;;4.05;3.25;;;;;;;;;;5053485;28;20036;-64
2023/06/16 01:46:22;;;;;;;5.35;3.30;;;;;;;;;;5054919;28;20479;-64
2023/06/16 01:48:48;;;;;;;3.92;3.53;;;;;;;;;;5054889;28;20036;-65
2023/06/16 01:51:15;;;;;;;4.10;3.50;;;;;;;;;;5054222;28;20036;-64
2023/06/16 01:53:41;;;;;;;3.88;3.30;;;;;;;;;;5054706;28;20411;-65
2023/06/16 01:56:06;;;;;;;5.43;3.40;;;;;;;;;;5053411;28;20024;-65
2023/06/16 01:58:32;;;;;;;5.93;3.00;;;;;;;;;;5054401;28;20036;-65
2023/06/16 02:01:11;;;;;;;4.57;3.28;;;;;;;;;;5054383;28;20082;-67
2023/06/16 02:03:46;;;;;;;4.13;3.00;;;;;;;;;;5054274;28;20036;-65
2023/06/16 02:06:21;;;;;;;4.00;3.58;;;;;;;;;;5054162;28;20029;-64
2023/06/16 02:08:49;;;;;;;4.00;3.40;;;;;;;;;;5052714;28;20032;-64
2023/06/16 02:11:15;;;;;;;4.18;3.50;;;;;;;;;;5052951;28;20052;-64
2023/06/16 02:13:43;;;;;;;3.55;3.25;;;;;;;;;;5052919;28;20075;-64
2023/06/16 02:16:09;;;;;;;3.90;3.50;;;;;;;;;;5053025;28;20033;-64
2023/06/16 02:18:35;;;;;;;4.22;2.83;;;;;;;;;;5052779;28;20079;-64
2023/06/16 02:21:00;;;;;;;3.08;2.88;;;;;;;;;;5052057;28;20029;-64
2023/06/16 02:23:26;;;;;;;6.30;3.65;;;;;;;;;;5052274;28;20104;-64
2023/06/16 02:25:52;;;;;;;4.57;3.13;;;;;;;;;;5052783;28;20435;-64
2023/06/16 02:28:17;;;;;;;3.90;3.20;;;;;;;;;;5053123;28;20167;-64
2023/06/16 02:30:44;;;;;;;4.70;3.25;;;;;;;;;;5053069;28;20526;-65
2023/06/16 02:33:11;;;;;;;3.95;3.58;;;;;;;;;;5052996;28;20017;-65
2023/06/16 02:35:36;;;;;;;3.88;3.33;;;;;;;;;;5053756;28;20047;-64
2023/06/16 02:38:02;;;;;;;5.03;3.50;;;;;;;;;;5053952;28;20052;-64
2023/06/16 02:40:28;;;;;;;4.93;3.45;;;;;;;;;;5053623;28;20477;-64
2023/06/16 02:42:54;;;;;;;4.82;3.75;;;;;;;;;;5053781;28;20078;-65
2023/06/16 02:45:20;;;;;;;3.50;3.20;;;;;;;;;;5053886;28;20109;-64
2023/06/16 02:47:45;;;;;;;3.53;3.17;;;;;;;;;;5053436;28;20491;-63
2023/06/16 02:50:11;;;;;;;4.72;3.40;;;;;;;;;;5052712;28;20025;-64
2023/06/16 02:52:36;;;;;;;3.55;3.25;;;;;;;;;;5053369;28;20024;-64
2023/06/16 02:55:03;;;;;;;4.55;3.42;;;;;;;;;;5053258;28;20064;-64
2023/06/16 02:57:29;;;;;;;4.65;3.65;;;;;;;;;;5053145;28;20029;-64
2023/06/16 02:59:55;;;;;;;4.78;3.40;;;;;;;;;;5053209;28;20028;-64
2023/06/16 03:02:21;;;;;;;4.00;3.17;;;;;;;;;;5053456;28;20040;-64
2023/06/16 03:04:47;;;;;;;4.80;3.83;;;;;;;;;;5053506;28;20457;-64
2023/06/16 03:07:12;;;;;;;3.45;3.13;;;;;;;;;;5053235;28;20036;-64
2023/06/16 03:09:38;;;;;;;3.83;3.40;;;;;;;;;;5052852;28;20107;-64
2023/06/16 03:12:04;;;;;;;3.40;3.10;;;;;;;;;;5053076;28;20108;-64
2023/06/16 03:14:32;;;;;;;4.50;3.40;;;;;;;;;;5052961;28;20017;-64
2023/06/16 03:16:58;;;;;;;4.18;3.20;;;;;;;;;;5052868;28;20033;-63
2023/06/16 03:19:23;;;;;;;3.55;3.20;;;;;;;;;;5053227;28;20029;-64
2023/06/16 03:21:50;;;;;;;4.65;3.17;;;;;;;;;;5053079;28;20358;-64
2023/06/16 03:24:18;;;;;;;5.95;3.28;;;;;;;;;;5052845;28;20033;-64
2023/06/16 03:26:44;;;;;;;4.10;3.60;;;;;;;;;;5052772;28;20028;-64
2023/06/16 03:29:12;;;;;;;4.60;3.35;;;;;;;;;;5052758;28;20473;-64
2023/06/16 03:31:37;;;;;;;4.65;3.58;;;;;;;;;;5052703;28;20431;-64
2023/06/16 03:34:03;;;;;;;3.72;3.33;;;;;;;;;;5052658;28;20135;-64
2023/06/16 03:36:32;;;;;;;5.10;3.60;;;;;;;;;;5052509;28;20083;-65
2023/06/16 03:38:58;;;;;;;4.47;3.50;;;;;;;;;;5052640;28;20112;-65
2023/06/16 03:41:24;;;;;;;3.63;3.33;;;;;;;;;;5052817;28;20033;-65
2023/06/16 03:43:49;;;;;;;3.83;3.22;;;;;;;;;;5052567;28;20516;-64
2023/06/16 03:46:15;;;;;;;3.67;3.30;;;;;;;;;;5052797;28;20039;-65
2023/06/16 03:48:40;;;;;;;5.28;3.40;;;;;;;;;;5052758;28;20100;-65
2023/06/16 03:51:06;;;;;;;3.92;3.20;;;;;;;;;;5052603;28;20021;-64
2023/06/16 03:53:31;;;;;;;6.22;3.60;;;;;;;;;;5052447;28;20032;-66
2023/06/16 03:55:57;;;;;;;4.20;3.28;;;;;;;;;;5052220;28;20033;-64
2023/06/16 03:58:24;;;;;;;4.55;3.38;;;;;;;;;;5052811;28;20025;-63
2023/06/16 04:00:50;;;;;;;3.70;3.05;;;;;;;;;;5052367;28;20086;-65
2023/06/16 04:03:15;;;;;;;4.75;3.22;;;;;;;;;;5052539;28;20021;-64
2023/06/16 04:05:42;;;;;;;3.63;3.33;;;;;;;;;;5052390;28;20522;-65
2023/06/16 04:08:07;;;;;;;4.10;3.35;;;;;;;;;;5052408;28;20025;-65
2023/06/16 04:10:33;;;;;;;3.58;3.28;;;;;;;;;;5051957;28;20041;-65
2023/06/16 04:12:59;;;;;;;4.45;3.38;;;;;;;;;;5053043;28;20120;-65
2023/06/16 04:15:24;;;;;;;3.70;3.35;;;;;;;;;;5052093;28;20079;-65
2023/06/16 04:17:50;;;;;;;3.65;3.35;;;;;;;;;;5052794;28;20037;-65
2023/06/16 04:20:16;;;;;;;3.72;3.38;;;;;;;;;;5055972;28;20032;-67
2023/06/16 04:22:42;;;;;;;3.35;3.05;;;;;;;;;;5056209;28;20021;-65
2023/06/16 04:25:09;;;;;;;4.35;3.50;;;;;;;;;;5056648;28;20017;-64
2023/06/16 04:27:36;;;;;;;4.22;3.50;;;;;;;;;;5056063;28;20502;-65
2023/06/16 04:30:04;;;;;;;3.95;3.20;;;;;;;;;;5056100;28;20048;-65
2023/06/16 04:32:30;;;;;;;3.28;3.00;;;;;;;;;;5056012;28;20508;-65
2023/06/16 04:34:57;;;;;;;3.35;3.05;;;;;;;;;;5056193;28;20040;-66
2023/06/16 04:37:23;;;;;;;3.45;3.05;;;;;;;;;;5055960;28;20068;-65
2023/06/16 04:39:49;;;;;;;3.50;3.20;;;;;;;;;;5055864;28;20060;-67
2023/06/16 04:42:15;;;;;;;3.53;3.22;;;;;;;;;;5055859;28;20108;-67
2023/06/16 04:44:41;;;;;;;3.45;3.15;;;;;;;;;;5055735;28;20036;-66
2023/06/16 04:47:09;;;;;;;5.38;3.90;;;;;;;;;;5056066;28;20025;-66
2023/06/16 04:49:35;;;;;;;3.63;3.10;;;;;;;;;;5055624;28;20036;-66
2023/06/16 04:52:01;;;;;;;3.25;2.92;;;;;;;;;;5055633;28;20040;-65
2023/06/16 04:54:26;;;;;;;3.45;3.15;;;;;;;;;;5055855;28;20025;-65
2023/06/16 04:56:52;;;;;;;4.57;3.35;;;;;;;;;;5055525;28;20029;-67
2023/06/16 04:59:18;;;;;;;4.35;3.42;;;;;;;;;;5055405;28;20037;-65
2023/06/16 05:01:43;;;;;;;4.82;3.60;;;;;;;;;;5055617;28;20025;-66
2023/06/16 05:04:09;;;;;;;3.72;3.25;;;;;;;;;;5055658;28;20487;-67
2023/06/16 05:06:36;;;;;;;4.10;3.00;;;;;;;;;;5055389;28;20465;-65
2023/06/16 05:09:02;;;;;;;4.35;3.50;;;;;;;;;;5055301;28;20025;-64
2023/06/16 05:11:28;;;;;;;3.53;3.22;;;;;;;;;;5055275;28;20098;-65
2023/06/16 05:13:54;;;;;;;3.50;3.20;;;;;;;;;;5055195;28;20040;-67
2023/06/16 05:16:19;;;;;;;3.40;3.10;;;;;;;;;;5055280;28;20037;-64
2023/06/16 05:18:45;;;;;;;3.75;3.35;;;;;;;;;;5055398;28;20017;-67
2023/06/16 05:21:11;;;;;;;4.03;3.63;;;;;;;;;;5053606;28;20051;-64
2023/06/16 05:23:36;;;;;;;4.20;2.92;;;;;;;;;;5047211;28;20066;-64
2023/06/16 05:26:03;;;;;;;3.50;3.05;;;;;;;;;;5045712;28;20020;-64
2023/06/16 05:28:28;;;;;;;4.53;3.05;;;;;;;;;;5047074;28;20067;-67
2023/06/16 05:30:54;;;;;;;4.07;3.17;;;;;;;;;;5043425;28;20609;-67
2023/06/16 05:33:20;;;;;;;3.50;3.15;;;;;;;;;;5048972;28;20021;-66
2023/06/16 05:35:46;;;;;;;5.68;3.40;;;;;;;;;;5045571;28;20044;-63
2023/06/16 05:38:12;;;;;;;3.45;3.15;;;;;;;;;;5046518;28;20079;-63
2023/06/16 06:33:25;;;;;;;4.15;3.42;;;;;;;;;;5062396;28;20399;-63
2023/06/16 06:35:51;;;;;;;3.70;3.20;;;;;;;;;;5067938;28;20044;-62
2023/06/16 06:38:17;;;;;;;3.45;3.15;;;;;;;;;;5068238;28;20528;-63
2023/06/16 06:40:42;;;;;;;4.03;3.63;;;;;;;;;;5067772;28;20020;-65
2023/06/16 06:43:08;;;;;;;3.70;2.88;;;;;;;;;;5067784;28;20036;-65
2023/06/16 06:45:34;;;;;;;4.25;3.30;;;;;;;;;;5067884;28;20064;-64
2023/06/16 06:47:59;;;;;;;3.80;3.10;;;;;;;;;;5067665;28;20025;-65
2023/06/16 06:50:25;;;;;;;4.15;3.10;;;;;;;;;;5067545;28;20481;-65
2023/06/16 06:52:51;;;;;;;3.63;3.25;;;;;;;;;;5067365;28;20037;-64
2023/06/16 06:55:16;;;;;;;3.60;3.30;;;;;;;;;;5067613;28;20029;-64
2023/06/16 06:57:42;;;;;;;5.50;3.55;;;;;;;;;;5066212;28;20056;-65
2023/06/16 07:00:09;;;;;;;3.50;3.20;;;;;;;;;;5067563;28;20035;-65
2023/06/16 07:02:35;;;;;;;5.15;3.40;;;;;;;;;;5067175;28;20040;-65
2023/06/16 07:05:02;;;;;;;3.92;3.33;;;;;;;;;;5067603;28;20078;-65
2023/06/16 07:07:28;;;;;;;5.03;3.05;;;;;;;;;;5067123;28;20037;-64
2023/06/16 07:09:53;;;;;;;4.55;3.20;;;;;;;;;;5067290;28;20021;-67
2023/06/16 07:12:19;;;;;;;3.92;3.40;;;;;;;;;;5067437;28;20029;-65
2023/06/16 07:14:46;;;;;;;3.80;3.00;;;;;;;;;;5067355;28;20423;-65
2023/06/16 07:17:12;;;;;;;3.47;3.17;;;;;;;;;;5067038;28;20471;-65
2023/06/16 07:19:38;;;;;;;4.43;3.35;;;;;;;;;;5064970;28;20025;-67
2023/06/16 07:22:05;;;;;;;3.72;3.40;;;;;;;;;;5065704;28;20043;-66
2023/06/16 07:24:31;;;;;;;3.78;3.28;;;;;;;;;;5066825;28;20036;-66
2023/06/16 07:26:59;;;;;;;3.90;3.10;;;;;;;;;;5066878;28;20017;-65
2023/06/16 07:29:25;;;;;;;4.07;3.50;;;;;;;;;;5066679;28;20021;-67
2023/06/16 07:31:51;;;;;;;4.03;3.58;;;;;;;;;;5047741;28;20080;-66
2023/06/16 07:34:17;;;;;;;3.78;3.38;;;;;;;;;;5032791;28;20469;-66
2023/06/16 07:36:42;;;;;;;4.18;3.40;;;;;;;;;;5033545;28;20033;-67
2023/06/16 07:39:08;;;;;;;3.40;3.10;;;;;;;;;;5033288;28;20392;-65
2023/06/16 07:41:33;;;;;;;4.20;3.55;;;;;;;;;;5032281;28;20033;-65
2023/06/16 07:44:03;;;;;;;3.40;3.13;;;;;;;;;;5034301;28;20021;-64
2023/06/16 07:46:34;;;;;;;5.40;3.60;;;;;;;;;;5033423;28;20682;-67
2023/06/16 07:49:00;;;;;;;3.72;3.22;;;;;;;;;;5033511;28;20378;-65
2023/06/16 07:51:26;;;;;;;4.75;3.17;;;;;;;;;;5031964;28;20393;-65
2023/06/16 07:53:52;;;;;;;6.18;3.05;;;;;;;;;;5033369;28;20032;-65
2023/06/16 07:56:18;;;;;;;4.68;3.63;;;;;;;;;;5033240;28;20060;-65
2023/06/16 07:58:45;;;;;;;6.00;3.17;;;;;;;;;;5033239;28;20060;-65
2023/06/16 08:01:11;;;;;;;5.00;3.42;;;;;;;;;;5036282;28;20084;-66
2023/06/16 08:03:36;;;;;;;6.20;3.50;;;;;;;;;;5033154;28;20048;-66
2023/06/16 08:06:05;;;;;;;5.25;3.10;;;;;;;;;;5031770;28;20030;-66
2023/06/16 08:08:32;;;;;;;3.92;3.53;;;;;;;;;;5033038;28;20034;-65
2023/06/16 08:10:59;;;;;;;3.58;3.28;;;;;;;;;;5032920;28;20033;-66
2023/06/16 08:13:25;;;;;;;5.82;3.33;;;;;;;;;;5031490;28;20033;-67
2023/06/16 08:15:51;;;;;;;4.53;3.47;;;;;;;;;;5032991;28;20025;-67
2023/06/16 08:18:17;;;;;;;6.60;3.47;;;;;;;;;;5031333;28;20037;-66
2023/06/16 08:20:50;;;;;;;4.95;3.13;;;;;;;;;;5031633;28;20400;-66
2023/06/16 08:23:15;;;;;;;4.35;3.30;;;;;;;;;;5033020;28;20025;-65
2023/06/16 08:25:41;;;;;;;8.55;3.22;;;;;;;;;;5032786;28;20496;-66
2023/06/16 08:28:07;;;;;;;8.52;3.47;;;;;;;;;;5035166;28;20037;-65
2023/06/16 08:30:36;;;;;;;6.43;3.20;;;;;;;;;;5052386;28;20127;-66
2023/06/16 08:33:02;;;;;;;4.85;3.30;;;;;;;;;;5052365;28;20562;-66
2023/06/16 08:35:30;;;;;;;6.45;3.10;;;;;;;;;;5052471;28;20029;-67
2023/06/16 08:37:59;;;;;;;3.55;3.25;;;;;;;;;;5052381;28;20392;-67
2023/06/16 08:40:25;;;;;;;6.15;3.20;;;;;;;;;;5052322;28;20396;-67
2023/06/16 08:42:53;;;;;;;6.88;3.17;;;;;;;;;;5052533;28;20150;-67
2023/06/16 08:45:20;;;;;;;3.35;2.97;;;;;;;;;;5049890;28;20083;-67
2023/06/16 08:47:46;;;;;;;6.45;3.35;;;;;;;;;;5052058;28;20498;-67
2023/06/16 08:50:19;;;;;;;4.30;3.25;;;;;;;;;;5052048;28;20031;-67
2023/06/16 08:52:46;;;;;;;4.95;3.15;;;;;;;;;;5050732;28;20029;-66
2023/06/16 08:55:14;;;;;;;6.38;3.40;;;;;;;;;;5052272;28;20420;-68
2023/06/16 08:57:46;;;;;;;4.63;3.00;;;;;;;;;;5052100;28;20028;-68
2023/06/16 09:00:16;;;;;;;11.38;3.40;;;;;;;;;;5050861;28;20029;-69
2023/06/16 09:02:48;;;;;;;14.02;3.95;;;;;;;;;;5048691;28;20032;-62
2023/06/16 09:05:15;;;;;;;5.45;3.15;;;;;;;;;;5052132;28;20041;-67
2023/06/16 09:07:41;;;;;;;4.70;3.17;;;;;;;;;;5051707;28;20048;-65
2023/06/16 09:10:10;;;;;;;7.75;3.85;;;;;;;;;;5051633;28;20369;-64
2023/06/16 09:12:35;;;;;;;6.38;3.47;;;;;;;;;;5050249;28;20128;-67
2023/06/16 09:15:05;;;;;;;7.20;3.40;;;;;;;;;;5050274;28;20451;-67
2023/06/16 09:17:31;;;;;;;4.43;3.20;;;;;;;;;;5049690;28;20039;-70
2023/06/16 09:19:57;;;;;;;8.52;3.42;;;;;;;;;;5051543;28;20090;-69
2023/06/16 09:22:26;;;;;;;9.77;3.40;;;;;;;;;;5051439;28;20415;-68
2023/06/16 09:24:56;;;;;;;4.63;3.10;;;;;;;;;;5051330;28;20082;-70
2023/06/16 09:27:24;;;;;;;8.20;3.90;;;;;;;;;;5051415;28;20025;-65
2023/06/16 09:29:59;;;;;;;6.47;3.50;;;;;;;;;;5051195;28;20036;-69
2023/06/16 09:32:25;;;;;;;10.57;3.65;;;;;;;;;;5033196;28;20555;-67
2023/06/16 09:34:51;;;;;;;4.80;3.63;;;;;;;;;;5031489;28;20037;-67
2023/06/16 09:37:20;;;;;;;23.35;4.47;;;;;;;;;;5031300;28;20032;-66
2023/06/16 09:39:46;;;;;;;18.27;4.30;;;;;;;;;;5031226;28;20481;-66
2023/06/16 09:42:12;;;;;;;8.70;4.45;;;;;;;;;;5031227;28;20298;-67
2023/06/16 09:44:40;;;;;;;11.90;4.50;;;;;;;;;;5031165;28;20064;-66
2023/06/16 09:47:06;;;;;;;8.32;4.40;;;;;;;;;;5034070;28;20036;-65
2023/06/16 09:49:34;;;;;;;8.18;4.35;;;;;;;;;;5049479;28;20024;-65
2023/06/16 09:52:00;;;;;;;6.10;4.60;;;;;;;;;;5050760;28;20033;-65
2023/06/16 09:54:27;;;;;;;9.68;4.70;;;;;;;;;;5050783;28;20104;-68
2023/06/16 09:56:57;;;;;;;9.18;4.78;;;;;;;;;;5050592;28;20034;-65
2023/06/16 09:59:23;;;;;;;4.97;4.47;;;;;;;;;;5049549;28;20028;-65
2023/06/16 10:01:52;;;;;;;9.32;4.85;;;;;;;;;;5049541;28;20041;-65
2023/06/16 10:04:20;;;;;;;7.97;4.70;;;;;;;;;;5051175;28;20040;-64
2023/06/16 10:06:56;;;;;;;4.97;4.45;;;;;;;;;;5050859;28;20071;-65
2023/06/16 10:09:27;;;;;;;8.93;4.25;;;;;;;;;;5050760;28;20423;-66
2023/06/16 10:11:57;;;;;;;11.30;4.70;;;;;;;;;;5050567;28;20116;-65
2023/06/16 10:14:30;;;;;;;5.70;4.45;;;;;;;;;;5051035;28;20090;-66
2023/06/16 10:16:58;;;;;;;9.10;4.93;;;;;;;;;;5050765;28;20559;-64
2023/06/16 10:19:28;;;;;;;6.18;4.40;;;;;;;;;;5050569;28;20029;-65
2023/06/16 10:21:55;;;;;;;5.03;4.00;;;;;;;;;;5051066;28;20032;-65
2023/06/16 10:24:21;;;;;;;6.80;4.38;;;;;;;;;;5050530;28;20056;-65
2023/06/16 10:26:50;;;;;;;5.55;4.60;;;;;;;;;;5033388;28;20029;-63
2023/06/16 10:29:20;;;;;;;7.35;4.72;;;;;;;;;;5029235;28;20051;-64
2023/06/16 10:31:49;;;;;;;6.47;4.53;;;;;;;;;;5030598;28;20057;-65
2023/06/16 10:34:26;;;;;;;9.93;4.60;;;;;;;;;;5043383;28;20029;-64
2023/06/16 10:36:54;;;;;;;6.38;4.38;;;;;;;;;;5050608;28;20025;-65
2023/06/16 10:39:20;;;;;;;5.38;4.60;;;;;;;;;;5050308;28;20032;-65
2023/06/16 10:41:51;;;;;;;8.52;4.50;;;;;;;;;;5048999;28;20488;-65
2023/06/16 10:44:32;;;;;;;7.47;4.70;;;;;;;;;;5048995;28;20492;-67
2023/06/16 10:47:12;;;;;;;5.55;4.55;;;;;;;;;;5050393;28;20040;-67
2023/06/16 10:49:50;;;;;;;;;;;;;;;;;;5049461;28;20032;-67
2023/06/16 10:52:27;;;;;;;9.18;4.68;;;;;;;;;;5048838;28;19924;-66
2023/06/16 10:54:55;;;;;;;5.60;4.28;;;;;;;;;;5050584;28;20544;-66
2023/06/16 10:57:22;;;;;;;6.63;4.55;;;;;;;;;;5048911;28;20473;-67
2023/06/16 11:00:34;;;;;;;5.97;4.70;;;;;;;;;;5050285;28;20047;-66
2023/06/16 11:02:59;;;;;;;8.77;4.65;;;;;;;;;;5047741;28;20392;-67
2023/06/16 11:05:38;;;;;;;14.35;4.20;;;;;;;;;;5050252;28;20437;-68
2023/06/16 11:08:08;;;;;;;7.35;5.03;;;;;;;;;;5049714;28;20028;-67
2023/06/16 11:10:46;;;;;;;6.90;4.78;;;;;;;;;;5052611;28;20467;-68
2023/06/16 11:13:14;;;;;;;7.97;4.40;;;;;;;;;;5051989;28;20035;-67
2023/06/16 11:15:42;;;;;;;7.35;4.57;;;;;;;;;;5047705;28;20087;-67
2023/06/16 11:18:07;;;;;;;8.77;4.65;;;;;;;;;;5033762;28;20499;-67
2023/06/16 11:20:35;;;;;;;9.43;4.63;;;;;;;;;;5046549;28;20025;-66
2023/06/16 11:23:02;;;;;;;9.73;4.50;;;;;;;;;;5053665;28;20033;-65
2023/06/16 11:25:28;;;;;;;6.30;4.45;;;;;;;;;;5036391;28;20389;-68
2023/06/16 11:28:00;;;;;;;5.25;4.75;;;;;;;;;;5048505;28;20103;-67
2023/06/16 11:30:25;;;;;;;5.57;4.78;;;;;;;;;;5052279;28;20611;-68
2023/06/16 11:32:52;;;;;;;5.88;4.68;;;;;;;;;;5053391;28;20049;-65
2023/06/16 11:35:18;;;;;;;5.97;4.55;;;;;;;;;;5053398;28;20056;-66
2023/06/16 11:37:48;;;;;;;10.15;4.80;;;;;;;;;;5053460;28;20036;-69
2023/06/16 11:40:17;;;;;;;7.35;4.72;;;;;;;;;;5051607;28;20037;-68
2023/06/16 11:42:43;;;;;;;6.28;4.70;;;;;;;;;;5051817;28;20037;-69
2023/06/16 11:45:09;;;;;;;8.95;4.85;;;;;;;;;;5052138;28;20033;-70
2023/06/16 11:47:35;;;;;;;7.28;4.47;;;;;;;;;;5053387;28;20070;-70
2023/06/16 11:50:03;;;;;;;4.60;4.20;;;;;;;;;;5032853;28;20099;-70
2023/06/16 11:52:30;;;;;;;7.95;4.63;;;;;;;;;;5033345;28;20033;-67
2023/06/16 11:54:57;;;;;;;9.05;4.95;;;;;;;;;;5033318;28;20431;-69
2023/06/16 11:57:22;;;;;;;22.63;5.65;;;;;;;;;;5031877;28;20079;-70
2023/06/16 11:59:48;;;;;;;9.88;4.47;;;;;;;;;;5032818;28;20057;-70
2023/06/16 12:02:17;;;;;;;10.90;5.28;;;;;;;;;;5029994;28;20030;-68
2023/06/16 12:04:44;;;;;;;8.82;4.88;;;;;;;;;;5031327;28;20045;-67
2023/06/16 12:07:10;;;;;;;8.90;5.03;;;;;;;;;;5031252;28;20049;-70
2023/06/16 12:09:39;;;;;;;7.72;5.10;;;;;;;;;;5032207;28;20527;-68
2023/06/16 12:12:07;;;;;;;8.45;5.20;;;;;;;;;;5032015;28;20036;-70
2023/06/16 12:14:36;;;;;;;8.75;6.03;;;;;;;;;;5032442;28;20364;-69
2023/06/16 12:17:03;;;;;;;5.53;5.00;;;;;;;;;;5032786;28;20029;-70
2023/06/16 12:19:29;;;;;;;10.15;5.00;;;;;;;;;;5032756;28;20083;-67
2023/06/16 12:22:02;;;;;;;13.80;5.28;;;;;;;;;;5064804;28;20033;-68
2023/06/16 12:24:28;;;;;;;14.50;6.03;;;;;;;;;;5032736;28;20025;-70
2023/06/16 12:26:54;;;;;;;9.93;5.18;;;;;;;;;;5064666;28;20021;-68
2023/06/16 12:29:20;;;;;;;7.13;5.25;;;;;;;;;;5032453;28;20100;-66
2023/06/16 12:32:00;;;;;;;8.15;5.38;;;;;;;;;;5032330;28;20067;-70
2023/06/16 12:34:30;;;;;;;7.95;6.13;;;;;;;;;;5032353;28;20026;-71
2023/06/16 12:37:03;;;;;;;16.52;5.10;;;;;;;;;;5032448;28;20038;-67
2023/06/16 12:39:30;;;;;;;9.55;5.35;;;;;;;;;;5032371;28;20089;-70
2023/06/16 12:42:04;;;;;;;10.18;5.68;;;;;;;;;;5031118;28;20037;-68
2023/06/16 12:44:50;;;;;;;10.07;5.30;;;;;;;;;;5031045;28;20036;-69
2023/06/16 12:47:23;;;;;;;9.15;4.53;;;;;;;;;;5032458;28;20063;-72
2023/06/16 12:49:53;;;;;;;9.02;4.85;;;;;;;;;;5032141;28;20038;-69
2023/06/16 12:52:19;;;;;;;11.90;4.70;;;;;;;;;;5032140;28;20029;-70
2023/06/16 12:54:46;;;;;;;22.00;5.43;;;;;;;;;;5032393;28;20504;-70
2023/06/16 12:57:12;;;;;;;13.15;5.68;;;;;;;;;;5032107;28;20032;-69
2023/06/16 12:59:37;;;;;;;8.63;4.75;;;;;;;;;;5032008;28;20022;-69
2023/06/16 13:02:04;;;;;;;8.55;4.43;;;;;;;;;;5030647;28;20172;-67
2023/06/16 13:04:33;;;;;;;7.13;4.47;;;;;;;;;;5046989;28;20116;-70
2023/06/16 13:06:58;;;;;;;10.27;5.05;;;;;;;;;;5031902;28;20061;-70
2023/06/16 13:09:24;;;;;;;8.75;4.88;;;;;;;;;;5031879;28;20064;-70
2023/06/16 13:11:51;;;;;;;18.83;4.90;;;;;;;;;;5030258;28;20025;-70
2023/06/16 13:14:17;;;;;;;13.02;5.47;;;;;;;;;;5031802;28;20045;-71
2023/06/16 13:16:43;;;;;;;8.70;4.80;;;;;;;;;;5031759;28;20290;-69
2023/06/16 13:19:09;;;;;;;6.32;5.22;;;;;;;;;;5031776;28;20030;-72
2023/06/16 13:21:34;;;;;;;11.63;4.97;;;;;;;;;;5031908;28;20025;-71
2023/06/16 13:24:00;;;;;;;14.43;5.68;;;;;;;;;;5031945;28;20017;-69
2023/06/16 13:26:26;;;;;;;52.88;7.95;;;;;;;;;;5031425;28;20029;-67
2023/06/16 13:28:52;;;;;;;13.52;5.28;;;;;;;;;;5030059;28;20025;-69
2023/06/16 13:31:20;;;;;;;11.55;4.95;;;;;;;;;;5029324;28;20104;-70
2023/06/16 13:33:46;;;;;;;7.45;5.55;;;;;;;;;;5030126;28;20091;-72
2023/06/16 13:36:18;;;;;;;13.32;5.25;;;;;;;;;;5031321;28;20481;-70
2023/06/16 13:38:45;;;;;;;8.90;5.00;;;;;;;;;;5032761;28;20025;-70
2023/06/16 13:41:18;;;;;;;16.33;5.50;;;;;;;;;;5045421;28;20025;-71
2023/06/16 13:43:46;;;;;;;14.68;6.57;;;;;;;;;;5048922;28;20024;-70
2023/06/16 13:46:13;;;;;;;18.77;6.30;;;;;;;;;;5046795;28;20098;-70
2023/06/16 13:48:38;;;;;;;11.82;5.97;;;;;;;;;;5049834;28;20028;-68
2023/06/16 13:51:04;;;;;;;13.45;5.60;;;;;;;;;;5050865;28;20032;-68
2023/06/16 13:53:30;;;;;;;12.93;5.78;;;;;;;;;;5050969;28;20075;-68
2023/06/16 13:55:56;;;;;;;11.77;5.75;;;;;;;;;;5050934;28;20484;-69
2023/06/16 13:58:21;;;;;;;10.35;5.80;;;;;;;;;;5051200;28;20033;-67
2023/06/16 14:00:47;;;;;;;10.80;5.18;;;;;;;;;;5050887;28;20028;-68
2023/06/16 14:03:13;;;;;;;9.82;5.40;;;;;;;;;;5049722;28;20029;-67
2023/06/16 14:05:40;;;;;;;9.73;5.00;;;;;;;;;;5050871;28;20031;-66
2023/06/16 14:08:06;;;;;;;9.15;5.32;;;;;;;;;;5051197;28;20418;-68
2023/06/16 14:10:32;;;;;;;9.40;5.45;;;;;;;;;;5050836;28;20100;-69
2023/06/16 14:12:57;;;;;;;8.38;6.05;;;;;;;;;;5050883;28;20108;-68
2023/06/16 14:15:23;;;;;;;6.78;5.22;;;;;;;;;;5050725;28;20044;-67
2023/06/16 14:17:49;;;;;;;8.15;5.20;;;;;;;;;;5050960;28;20037;-68
2023/06/16 14:20:15;;;;;;;10.68;5.43;;;;;;;;;;5051094;28;20437;-67
2023/06/16 14:22:41;;;;;;;9.30;5.72;;;;;;;;;;5050881;28;20476;-66
2023/06/16 14:25:08;;;;;;;9.55;5.38;;;;;;;;;;5050714;28;20047;-66
2023/06/16 14:27:35;;;;;;;8.20;5.53;;;;;;;;;;5050674;28;20734;-65
2023/06/16 14:30:06;;;;;;;7.35;5.60;;;;;;;;;;5050639;28;20040;-67
2023/06/16 14:32:32;;;;;;;9.70;5.78;;;;;;;;;;5050514;28;20103;-65
2023/06/16 14:34:58;;;;;;;9.93;5.95;;;;;;;;;;5048339;28;20029;-65
2023/06/16 14:37:23;;;;;;;10.15;5.63;;;;;;;;;;5050317;28;20022;-67
2023/06/16 14:39:49;;;;;;;8.20;5.97;;;;;;;;;;5049853;28;20056;-65
2023/06/16 14:42:15;;;;;;;8.07;5.65;;;;;;;;;;5049976;28;20029;-67
2023/06/16 14:44:40;;;;;;;11.55;6.30;;;;;;;;;;5054142;28;20021;-66
2023/06/16 14:47:06;;;;;;;8.20;5.97;;;;;;;;;;5054615;28;20128;-66
2023/06/16 14:49:31;;;;;;;8.77;5.70;;;;;;;;;;5054327;28;20025;-67
2023/06/16 14:51:57;;;;;;;11.23;5.95;;;;;;;;;;5054205;28;20040;-68
2023/06/16 14:54:23;;;;;;;9.32;6.18;;;;;;;;;;5054324;28;20029;-66
2023/06/16 14:56:50;;;;;;;7.00;5.80;;;;;;;;;;5054357;28;20032;-65
2023/06/16 14:59:18;;;;;;;8.45;6.40;;;;;;;;;;5054214;28;20055;-66
2023/06/16 15:01:46;;;;;;;8.20;5.80;;;;;;;;;;5053010;28;20040;-67
2023/06/16 15:04:12;;;;;;;12.55;5.93;;;;;;;;;;5043786;28;20037;-66
2023/06/16 15:06:39;;;;;;;8.70;5.88;;;;;;;;;;5041721;28;20031;-67
2023/06/16 15:09:05;;;;;;;10.43;6.30;;;;;;;;;;5053543;28;20025;-65
2023/06/16 15:11:32;;;;;;;9.27;6.38;;;;;;;;;;5051714;28;20032;-65
2023/06/16 15:13:57;;;;;;;8.25;5.88;;;;;;;;;;5053691;28;20427;-66
2023/06/16 15:16:30;;;;;;;10.70;6.30;;;;;;;;;;5053575;28;20082;-67
2023/06/16 15:18:59;;;;;;;7.78;5.80;;;;;;;;;;5049758;28;20041;-66
2023/06/16 15:21:25;;;;;;;12.25;6.50;;;;;;;;;;5051459;28;20045;-65
2023/06/16 15:23:51;;;;;;;9.13;6.18;;;;;;;;;;5047673;28;20033;-68
2023/06/16 15:26:16;;;;;;;7.05;6.28;;;;;;;;;;5033649;28;20366;-66
2023/06/16 15:28:43;;;;;;;7.63;6.45;;;;;;;;;;5033794;28;20021;-66
2023/06/16 15:31:09;;;;;;;12.57;6.97;;;;;;;;;;5035042;28;20128;-67
2023/06/16 15:33:34;;;;;;;9.82;6.47;;;;;;;;;;5047123;28;20040;-68
2023/06/16 15:36:02;;;;;;;8.48;6.60;;;;;;;;;;5052700;28;20090;-66